Weather observations for the past three days for
Neil Armstrong Airport
Metric (Imperial)
Date Time (edt) Wind (kph) Vis. (km) Weather Sky Cond. Temperature (ºC) Relative Humidity Wind Chill (°C) Heat Index (°C) Pressure Precipitation (cm)
Air Dwpt 6 hour altimeter (cm) sea level (mb) 1 hr 3 hr 6 hr
Max. Min.
04 22:55 S 20 16.09 Overcast OVC100 19 10 56% 75.34 0.0
04 22:35 S 20 G 30 16.09 Overcast OVC100 19 10 56% 75.34 0.0
04 22:15 S 20 16.09 Overcast OVC100 19 10 56% 75.31 0.0
04 21:55 S 19 16.09 Overcast OVC100 19 10 56% 75.31 0.0
04 21:35 S 20 16.09 Overcast OVC110 19 10 56% 75.31 0.0
04 21:15 S 20 16.09 Mostly Cloudy BKN110 19 10 56% 75.29 0.0
04 20:55 S 17 16.09 Partly Cloudy SCT100 19 10 56% 75.29 0.0
04 20:35 S 17 16.09 Overcast OVC110 20 10 53% 75.29 0.0
04 20:15 S 19 16.09 Overcast OVC110 20 10 53% 75.29 0.0
04 19:55 S 22 G 31 16.09 Mostly Cloudy SCT085 BKN110 20 9 49% 75.29 0.0
04 19:35 SW 26 G 33 16.09 Partly Cloudy SCT090 SCT120 21 9 46% 75.31 0.0
04 19:15 SW 26 G 43 16.09 Partly Cloudy SCT090 21 8 43% 75.31 0.0
04 18:55 SW 22 G 37 16.09 Partly Cloudy SCT090 21 8 43% 75.34 0.0
04 18:35 SW 39 G 56 16.09 Partly Cloudy and Breezy SCT120 22 8 41% 75.34 0.0
04 18:15 SW 41 G 52 16.09 Mostly Cloudy and Breezy BKN110 23 7 36% 75.31 0.0
04 17:55 SW 35 G 48 16.09 Overcast and Breezy OVC110 22 8 41% 75.31 0.0
04 17:35 SW 37 G 52 16.09 Mostly Cloudy and Breezy BKN110 23 8 38% 75.31 0.0
04 17:15 SW 37 G 54 16.09 Fair and Breezy CLR 23 9 41% 75.34 0.0
04 16:55 SW 43 G 59 16.09 Fair and Windy CLR 23 9 41% 75.34 0.0
04 16:35 SW 46 G 63 16.09 Partly Cloudy and Windy SCT100 23 10 44% 75.36 0.0
04 16:15 SW 48 G 65 16.09 Partly Cloudy and Windy SCT100 22 9 44% 75.36 0.0
04 15:55 SW 50 G 61 16.09 Partly Cloudy and Windy SCT060 23 10 44% 75.39 0.0
04 15:35 SW 41 G 57 16.09 Fair and Breezy CLR 23 10 44% 75.41 0.0
04 15:15 SW 41 G 56 16.09 Partly Cloudy and Breezy SCT110 23 11 47% 75.39 0.0
04 14:55 SW 35 G 52 16.09 Mostly Cloudy and Breezy SCT050 SCT080 BKN110 22 11 50% 75.41 0.0
04 14:35 SW 35 G 44 16.09 Partly Cloudy and Breezy SCT055 SCT075 SCT100 23 11 47% 75.41 0.0
04 14:15 SW 35 G 50 16.09 Fair and Breezy CLR 23 11 47% 75.41 0.0
04 13:55 SW 35 G 52 16.09 Fair and Breezy CLR 23 10 44% 75.41 0.0
04 13:35 W 30 G 41 16.09 Fair CLR 22 11 50% 75.41 0.0
04 13:15 SW 31 G 41 16.09 Mostly Cloudy SCT050 SCT065 BKN090 22 11 50% 75.44 0.0
04 12:55 SW 31 G 41 16.09 Fair CLR 21 10 50% 75.46 0.0
04 12:35 SW 20 G 33 16.09 Fair CLR 20 11 56% 75.49 0.0
04 12:15 SW 20 16.09 Fair CLR 19 10 56% 75.54 0.0
04 11:55 SW 20 G 31 16.09 Fair CLR 18 10 60% 75.54 0.0
04 11:35 SW 20 16.09 Fair CLR 18 10 60% 75.57 0.0
04 11:15 SW 22 G 30 16.09 Fair CLR 17 9 60% 75.57 0.0
04 10:55 SW 22 G 33 16.09 Fair CLR 17 9 60% 75.57 0.0
04 10:35 S 22 G 30 16.09 Fair CLR 16 9 63% 75.57 0.0
04 10:15 S 20 16.09 Fair CLR 16 8 59% 75.57 0.0
04 09:55 S 20 16.09 Fair CLR 15 8 63% 75.59 0.0
04 09:35 S 19 16.09 Fair CLR 13 7 67% 75.59 0.0
04 09:15 SW 19 16.09 Fair CLR 13 7 67% 75.59 0.0
04 08:55 S 15 16.09 Fair CLR 12 6 67% 75.59 0.0
04 08:35 S 19 16.09 Fair CLR 11 6 72% 75.62 0.0
04 08:15 S 17 16.09 Fair CLR 10 5 71% 8 75.64 0.0
04 07:55 S 17 16.09 Fair CLR 10 5 71% 8 75.64 0.0
04 07:35 S 15 16.09 Fair CLR 8 5 82% 6 75.62 0.0
04 07:15 S 13 16.09 Fair CLR 8 4 76% 6 75.62 0.0
04 06:55 S 15 16.09 Fair CLR 8 4 76% 6 75.62 0.0
04 06:35 S 15 16.09 Fair CLR 8 4 76% 6 75.62 0.0
04 06:15 S 15 16.09 Fair CLR 8 4 76% 6 75.62 0.0
04 05:55 S 15 16.09 Fair CLR 8 4 76% 6 75.62 0.0
04 05:35 S 19 16.09 Fair CLR 8 4 76% 5 75.64 0.0
04 05:15 S 19 16.09 Fair CLR 8 4 76% 5 75.67 0.0
04 04:55 S 17 16.09 Fair CLR 8 4 76% 6 75.67 0.0
04 04:35 S 17 16.09 Fair CLR 8 4 76% 6 75.67 0.0
04 04:15 S 15 16.09 Fair CLR 8 3 71% 6 75.67 0.0
04 03:55 S 17 16.09 Fair CLR 9 3 66% 7 75.69 0.0
04 03:35 S 17 16.09 Fair CLR 9 3 66% 7 75.69 0.0
04 03:15 S 19 16.09 Fair CLR 9 3 66% 7 75.72 0.0
04 02:55 S 17 16.09 Fair CLR 10 3 62% 8 75.72 0.0
04 02:35 S 17 16.09 Fair CLR 10 3 62% 8 75.74 0.0
04 02:15 S 17 16.09 Fair CLR 9 3 66% 7 75.74 0.0
04 01:55 S 17 16.09 Fair CLR 10 3 62% 8 75.77 0.0
04 01:35 S 17 16.09 Fair CLR 10 3 62% 8 75.79 0.0
04 01:15 S 17 16.09 Partly Cloudy SCT070 10 3 62% 8 75.79 0.0
04 00:55 S 17 16.09 Mostly Cloudy BKN070 10 3 62% 8 75.82 0.0
04 00:35 S 17 16.09 Overcast OVC070 10 4 67% 8 75.82 0.0
04 00:15 S 17 16.09 Overcast BKN070 OVC080 10 4 67% 8 75.84 0.0
03 23:55 S 17 G 26 16.09 Overcast SCT070 OVC090 10 4 67% 8 75.87 0.0
03 23:35 S 15 16.09 Overcast SCT070 OVC090 10 4 67% 8 75.87 0.0
03 23:15 S 15 16.09 Overcast SCT070 OVC080 10 4 67% 8 75.87 0.0
03 22:55 S 15 16.09 Overcast BKN070 OVC080 10 4 67% 8 75.9 0.0
03 22:35 S 15 16.09 Overcast BKN070 OVC080 9 5 76% 7 75.9 0.0
03 22:15 S 13 16.09 Overcast BKN070 OVC080 9 5 76% 7 75.92 0.0
03 21:55 S 15 16.09 Overcast OVC065 9 5 76% 7 75.92 0.0
03 21:35 S 19 16.09 Light Rain SCT055 OVC065 8 5 82% 5 75.92 0.0
03 21:15 S 15 16.09 Light Rain BKN055 OVC080 8 5 82% 6 75.92 0.0
03 20:55 S 15 G 26 16.09 Light Rain SCT055 OVC080 8 5 82% 6 75.92 0.0
03 20:35 S 11 16.09 Overcast SCT050 SCT065 OVC090 8 5 82% 6 75.92 0.0
03 20:15 S 11 16.09 Overcast BKN050 BKN060 OVC090 8 5 82% 6 75.92 0.0
03 19:55 SE 11 16.09 Overcast BKN060 BKN070 OVC090 8 5 82% 6 75.92 0.0
03 19:35 SE 20 16.09 Overcast SCT070 SCT075 OVC090 8 5 82% 5 75.92 0.0
03 19:15 SE 9 16.09 Overcast OVC090 8 5 82% 7 75.95 0.0
03 18:55 SE 9 16.09 Overcast SCT055 OVC080 8 5 82% 7 75.97 0.0
03 18:35 SE 11 16.09 Overcast SCT047 BKN055 OVC090 8 5 82% 6 76.02 0.0
03 18:15 S 9 16.09 Light Drizzle SCT043 BKN049 OVC055 8 5 82% 7 76.05 0.0
03 17:55 SW 26 G 44 16.09 Light Rain BKN049 BKN055 OVC070 8 5 82% 5 76.1 0.0
03 17:35 SW 41 G 52 16.09 Overcast and Breezy SCT070 OVC080 10 3 62% 6 76.1 0.0
03 17:15 SW 48 G 65 16.09 Partly Cloudy and Windy SCT090 SCT110 11 3 58% 76.07 0.0
03 16:55 SW 33 G 43 16.09 Partly Cloudy and Breezy SCT070 SCT090 SCT110 14 0 39% 76.05 0.0
03 16:35 SW 33 G 46 16.09 Partly Cloudy and Breezy SCT070 15 0 36% 76.05 0.0
03 16:15 SW 39 G 48 16.09 Partly Cloudy and Breezy SCT070 SCT110 15 0 36% 76.07 0.0
03 15:55 SW 33 G 52 16.09 Partly Cloudy and Breezy SCT120 15 0 36% 76.1 0.0
03 15:35 SW 28 G 33 16.09 Partly Cloudy SCT120 15 0 36% 76.1 0.0
03 15:15 SW 28 G 39 16.09 Fair CLR 15 0 36% 76.1 0.0
03 14:55 SW 33 G 44 16.09 Fair and Breezy CLR 16 0 34% 76.12 0.0
03 14:35 SW 33 G 44 16.09 Fair and Breezy CLR 16 0 34% 76.15 0.0
03 14:15 SW 31 G 43 16.09 Fair CLR 15 0 36% 76.17 0.0
03 13:55 SW 30 G 44 16.09 Partly Cloudy SCT070 15 0 36% 76.2 0.0
03 13:35 W 30 G 43 16.09 Partly Cloudy SCT070 15 0 36% 76.23 0.0
03 13:15 SW 28 G 39 16.09 Fair CLR 15 0 36% 76.23 0.0
03 12:55 W 41 G 46 16.09 Fair and Breezy CLR 15 0 36% 76.23 0.0
03 12:35 W 22 G 44 16.09 Fair CLR 14 0 39% 76.25 0.0
03 12:15 SW 35 G 41 16.09 Fair and Breezy CLR 14 0 39% 76.28 0.0
03 11:55 SW 33 G 41 16.09 Fair and Breezy CLR 13 1 44% 76.3 0.0
03 11:35 SW 30 16.09 Fair CLR 13 1 44% 76.3 0.0
03 11:15 W 22 G 35 16.09 Fair CLR 13 1 44% 76.3 0.0
03 10:55 W 33 G 41 16.09 Fair and Breezy CLR 12 0 44% 76.3 0.0
03 10:35 SW 28 G 35 16.09 Fair CLR 12 1 47% 76.3 0.0
03 10:15 SW 24 G 31 16.09 Fair CLR 11 1 50% 76.3 0.0
03 09:55 SW 24 G 33 16.09 Fair CLR 10 1 54% 7 76.33 0.0
03 09:35 SW 24 G 33 16.09 Fair CLR 9 0 54% 6 76.33 0.0
03 09:15 SW 26 G 35 16.09 Fair CLR 8 0 57% 5 76.33 0.0
03 08:55 SW 20 16.09 Fair CLR 7 0 61% 4 76.33 0.0
03 08:35 SW 17 16.09 Fair CLR 6 0 66% 3 76.33 0.0
03 08:15 SW 17 16.09 Fair CLR 5 0 70% 2 76.33 0.0
03 07:55 SW 15 16.09 Fair CLR 4 0 75% 1 76.33 0.0
03 07:35 S 11 16.09 Fair CLR 3 -1 75% 0 76.33 0.0
03 07:15 SW 11 16.09 Fair CLR 2 -1 81% -1 76.3 0.0
03 06:55 S 9 16.09 Fair CLR 1 -1 87% -2 76.3 0.0
03 06:35 S 9 16.09 Fair CLR 1 -1 87% -2 76.28 0.0
03 06:15 S 6 16.09 Fair CLR 1 -1 87% 76.28 0.0
03 05:55 S 6 16.09 Fair CLR 1 -1 87% 76.28 0.0
03 05:35 Calm 16.09 Fair CLR 1 -1 87% 76.28 0.0
03 05:15 Calm 16.09 Fair CLR 1 -1 87% 76.3 0.0
03 04:55 Calm 16.09 Fair CLR 1 -1 87% 76.3 0.0
03 04:35 Calm 16.09 Fair CLR 1 -1 87% 76.3 0.0
03 04:15 Calm 16.09 Fair CLR 1 -1 87% 76.3 0.0
03 03:55 Calm 16.09 Fair CLR 1 -1 87% 76.3 0.0
03 03:35 Calm 16.09 Fair CLR 1 -1 87% 76.3 0.0
03 03:15 Calm 16.09 Fair CLR 2 -1 81% 76.3 0.0
03 02:55 Calm 16.09 Fair CLR 2 -1 81% 76.3 0.0
03 02:35 Calm 16.09 Mostly Cloudy BKN080 2 -1 81% 76.3 0.0
03 02:15 Calm 16.09 Mostly Cloudy BKN080 2 0 87% 76.33 0.0
03 01:55 Calm 16.09 Overcast OVC080 2 -1 81% 76.33 0.0
03 01:35 Calm 16.09 Overcast OVC080 2 -1 81% 76.33 0.0
03 01:15 Calm 16.09 Overcast OVC080 2 -1 81% 76.33 0.0
03 00:55 Calm 16.09 Mostly Cloudy BKN080 2 -1 81% 76.33 0.0
03 00:35 Calm 16.09 Partly Cloudy SCT080 2 -1 81% 76.33 0.0
03 00:15 Calm 16.09 Fair CLR 2 -1 81% 76.33 0.0
02 23:55 Calm 16.09 Fair CLR 2 -1 81% 76.35 0.0
02 23:35 Calm 16.09 Fair CLR 2 -1 81% 76.33 0.0
02 23:15 Calm 16.09 Fair CLR 3 0 81% 76.33 0.0
02 22:55 Calm 16.09 Fair CLR 1 0 93% 76.35 0.0
02 22:35 Calm 16.09 Fair CLR 2 0 87% 76.35 0.0
02 22:15 Calm 16.09 Partly Cloudy SCT070 3 0 81% 76.35 0.0
02 21:55 Calm 16.09 Overcast OVC070 3 0 81% 76.35 0.0
02 21:35 Calm 16.09 Mostly Cloudy BKN070 3 0 81% 76.33 0.0
02 21:15 Calm 16.09 Partly Cloudy SCT070 4 0 75% 76.33 0.0
02 20:55 Calm 16.09 Partly Cloudy SCT070 6 -2 57% 76.3 0.0
02 20:35 Calm 16.09 Fair CLR 6 -3 53% 76.33 0.0
02 20:15 NW 6 16.09 Fair CLR 7 -3 49% 76.3 0.0
02 19:55 NW 7 16.09 Partly Cloudy SCT065 7 -4 46% 6 76.3 0.0
02 19:35 NW 7 16.09 Partly Cloudy SCT065 8 -4 43% 7 76.3 0.0
02 19:15 W 11 16.09 Partly Cloudy SCT075 8 -3 46% 6 76.3 0.0
02 18:55 N 6 16.09 Mostly Cloudy BKN075 8 -3 46% 76.3 0.0
02 18:35 NW 11 16.09 Overcast OVC075 7 -3 49% 5 76.33 0.0
02 18:15 NW 9 16.09 Overcast OVC065 7 -3 49% 5 76.33 0.0
02 17:55 NW 9 16.09 Overcast SCT050 OVC065 7 -3 49% 5 76.33 0.0
02 17:35 NW 15 16.09 Overcast SCT050 OVC065 7 -2 53% 5 76.3 0.0
02 17:15 NW 13 16.09 Overcast SCT050 OVC065 7 -2 53% 5 76.3 0.0
02 16:55 NW 7 16.09 Overcast SCT050 OVC065 7 -3 49% 6 76.3 0.0
02 16:35 NW 13 16.09 Overcast SCT050 OVC065 7 -3 49% 5 76.33 0.0
02 16:15 N 13 16.09 Overcast SCT050 OVC065 7 -2 53% 5 76.33 0.0
02 15:55 NW 11 16.09 Overcast OVC065 7 -3 49% 5 76.35 0.0
02 15:35 N 13 16.09 Overcast SCT050 OVC065 7 -3 49% 5 76.35 0.0
02 15:15 NW 15 16.09 Overcast SCT050 OVC065 7 -2 53% 5 76.35 0.0
02 14:55 N 11 16.09 Overcast SCT050 OVC065 7 -2 53% 5 76.35 0.0
02 14:35 Calm 16.09 Overcast SCT050 OVC065 7 -3 49% 76.35 0.0
02 14:15 N 11 16.09 Overcast SCT050 OVC065 7 -2 53% 5 76.38 0.0
02 13:55 NW 20 G 28 16.09 Overcast BKN050 OVC065 7 -2 53% 4 76.38 0.0
02 13:35 NW 9 16.09 Overcast SCT048 OVC055 8 -2 50% 7 76.38 0.0
02 13:15 NW 13 16.09 Overcast SCT048 OVC055 7 -2 53% 5 76.4 0.0
02 12:55 NW 13 16.09 Overcast SCT048 OVC065 6 -3 53% 4 76.4 0.0
02 12:35 NW 15 16.09 Overcast SCT044 SCT050 OVC065 7 -2 53% 5 76.43 0.0
02 12:15 NW 13 16.09 Mostly Cloudy SCT042 SCT048 BKN055 6 -2 57% 4 76.43 0.0
02 11:55 NW 13 16.09 Mostly Cloudy SCT040 SCT047 BKN055 6 -2 57% 4 76.43 0.0
02 11:35 NW 11 16.09 Partly Cloudy SCT040 SCT047 6 -2 57% 4 76.43 0.0
02 11:15 NW 13 16.09 Mostly Cloudy BKN037 6 -1 61% 4 76.43 0.0
02 10:55 NW 11 16.09 Partly Cloudy SCT033 6 -1 61% 4 76.43 0.0
02 10:35 NW 15 16.09 Fair CLR 5 -1 66% 2 76.43 0.0
02 10:15 NW 9 16.09 Fair CLR 5 -1 66% 3 76.43 0.0
02 09:55 NW 9 16.09 Fair CLR 5 -1 66% 3 76.43 0.0
02 09:35 N 11 16.09 Fair CLR 4 -1 70% 2 76.4 0.0
02 09:15 N 9 16.09 Fair CLR 3 -1 75% 1 76.4 0.0
02 08:55 N 11 16.09 Fair CLR 3 -1 75% 0 76.4 0.0
02 08:35 N 9 16.09 Fair CLR 2 -1 81% -0 76.38 0.0
02 08:15 NW 6 16.09 Fair CLR 2 -1 81% 76.35 0.0
02 07:55 NW 11 16.09 Fair CLR 1 -2 81% -2 76.35 0.0
02 07:35 NW 6 16.09 Fair CLR 1 -2 81% 76.35 0.0
02 07:15 NW 6 16.09 Fair CLR 1 -2 81% 76.35 0.0
02 06:55 W 6 16.09 Fair CLR 0 -2 87% 76.33 0.0
02 06:35 W 6 16.09 Fair CLR 0 -2 87% 76.35 0.0
02 06:15 W 6 16.09 Fair CLR 0 -2 87% 76.33 0.0
02 05:55 W 6 16.09 Fair CLR 0 -2 87% 76.33 0.0
02 05:35 Calm 16.09 Fair CLR 1 -2 81% 76.33 0.0
02 05:15 Calm 16.09 Fair CLR 1 -2 81% 76.33 0.0
02 04:55 W 6 16.09 Fair CLR 1 -2 81% 76.33 0.0
02 04:35 NW 6 16.09 Fair CLR 1 -2 81% 76.33 0.0
02 04:15 NW 7 16.09 Fair CLR 2 -2 75% 0 76.33 0.0
02 03:55 NW 7 16.09 Partly Cloudy SCT070 2 -1 81% 0 76.33 0.0
02 03:35 NW 7 16.09 Mostly Cloudy BKN070 2 -1 81% 0 76.3 0.0
02 03:15 NW 6 16.09 Overcast OVC070 2 -1 81% 76.3 0.0
02 02:55 Calm 16.09 Mostly Cloudy BKN070 2 -1 81% 76.3 0.0
02 02:35 Calm 16.09 Mostly Cloudy BKN070 1 0 93% 76.3 0.0
02 02:15 Calm 16.09 Mostly Cloudy BKN070 2 -1 81% 76.3 0.0
02 01:55 NW 6 16.09 Fair CLR 3 -2 70% 76.33 0.0
02 01:35 W 6 16.09 Fair CLR 3 -2 70% 76.33 0.0
02 01:15 W 7 16.09 Fair CLR 3 -2 70% 1 76.33 0.0
02 00:55 NW 7 16.09 Fair CLR 3 -1 75% 1 76.33 0.0
02 00:35 NW 7 16.09 Fair CLR 4 -1 70% 2 76.33 0.0
02 00:15 NW 7 16.09 Fair CLR 4 -1 70% 2 76.33 0.0
01 23:55 NW 7 16.09 Fair CLR 5 -1 66% 4 76.35 0.0
01 23:35 NW 6 16.09 Fair CLR 5 -1 66% 76.35 0.0
01 23:15 NW 6 16.09 Fair CLR 5 -1 66% 76.35 0.0
Date Time (edt) Wind (kph) Vis. (km) Weather Sky Cond. Air Dwpt Max. Min. Relative Humidity Wind Chill (°C) Heat Index (°C) altimeter (cm) sea level (mb) 1 hr 3 hr 6 hr
6 hour
Temperature (ºC) Pressure Precipitation (cm)